sensor_id;sensor_type;location;lat;lon;timestamp;temperature;humidity
56322;DHT22;42227;6.376;-10.782;2023-07-20T00:00:57;26.90;99.90
56322;DHT22;42227;6.376;-10.782;2023-07-20T00:03:26;26.60;99.90
56322;DHT22;42227;6.376;-10.782;2023-07-20T00:05:54;26.50;99.90
56322;DHT22;42227;6.376;-10.782;2023-07-20T00:08:23;26.40;99.90
56322;DHT22;42227;6.376;-10.782;2023-07-20T00:10:51;26.40;99.90
56322;DHT22;42227;6.376;-10.782;2023-07-20T00:13:19;26.30;99.90
56322;DHT22;42227;6.376;-10.782;2023-07-20T00:15:48;26.30;99.90
56322;DHT22;42227;6.376;-10.782;2023-07-20T00:18:16;26.30;99.90
56322;DHT22;42227;6.376;-10.782;2023-07-20T00:20:45;26.60;99.90
56322;DHT22;42227;6.376;-10.782;2023-07-20T00:23:13;26.90;99.90
56322;DHT22;42227;6.376;-10.782;2023-07-20T00:25:42;26.90;99.90
56322;DHT22;42227;6.376;-10.782;2023-07-20T00:28:10;26.60;99.90
56322;DHT22;42227;6.376;-10.782;2023-07-20T00:30:39;26.50;99.90
56322;DHT22;42227;6.376;-10.782;2023-07-20T00:33:16;26.40;99.90
56322;DHT22;42227;6.376;-10.782;2023-07-20T00:35:45;26.30;99.90
56322;DHT22;42227;6.376;-10.782;2023-07-20T00:38:16;26.30;99.90
56322;DHT22;42227;6.376;-10.782;2023-07-20T00:40:44;26.30;99.90
56322;DHT22;42227;6.376;-10.782;2023-07-20T00:43:13;26.40;99.90
56322;DHT22;42227;6.376;-10.782;2023-07-20T00:45:41;26.50;99.90
56322;DHT22;42227;6.376;-10.782;2023-07-20T00:48:11;27.00;99.90
56322;DHT22;42227;6.376;-10.782;2023-07-20T00:50:40;26.90;99.90
56322;DHT22;42227;6.376;-10.782;2023-07-20T00:53:08;26.50;99.90
56322;DHT22;42227;6.376;-10.782;2023-07-20T00:55:37;26.30;99.90
56322;DHT22;42227;6.376;-10.782;2023-07-20T00:58:07;26.20;99.90
56322;DHT22;42227;6.376;-10.782;2023-07-20T01:00:36;26.10;99.90
56322;DHT22;42227;6.376;-10.782;2023-07-20T01:03:04;26.10;99.90
56322;DHT22;42227;6.376;-10.782;2023-07-20T01:08:27;26.00;99.90
56322;DHT22;42227;6.376;-10.782;2023-07-20T01:14:06;26.60;99.90
56322;DHT22;42227;6.376;-10.782;2023-07-20T01:16:35;26.30;99.90
56322;DHT22;42227;6.376;-10.782;2023-07-20T01:19:04;26.10;99.90
56322;DHT22;42227;6.376;-10.782;2023-07-20T01:21:43;26.00;99.90
56322;DHT22;42227;6.376;-10.782;2023-07-20T01:33:09;25.90;99.90
56322;DHT22;42227;6.376;-10.782;2023-07-20T01:35:41;26.10;99.90
56322;DHT22;42227;6.376;-10.782;2023-07-20T01:38:12;26.20;99.90
56322;DHT22;42227;6.376;-10.782;2023-07-20T01:40:41;26.30;99.90
56322;DHT22;42227;6.376;-10.782;2023-07-20T01:43:11;26.20;99.90
56322;DHT22;42227;6.376;-10.782;2023-07-20T01:45:39;26.10;99.90
56322;DHT22;42227;6.376;-10.782;2023-07-20T01:48:08;26.10;99.90
56322;DHT22;42227;6.376;-10.782;2023-07-20T01:50:37;26.10;99.90
56322;DHT22;42227;6.376;-10.782;2023-07-20T01:53:05;26.00;99.90
56322;DHT22;42227;6.376;-10.782;2023-07-20T01:55:33;26.00;99.90
56322;DHT22;42227;6.376;-10.782;2023-07-20T01:58:02;25.90;99.90
56322;DHT22;42227;6.376;-10.782;2023-07-20T02:00:30;26.10;99.90
56322;DHT22;42227;6.376;-10.782;2023-07-20T02:02:59;26.60;99.90
56322;DHT22;42227;6.376;-10.782;2023-07-20T02:05:27;26.60;99.90
56322;DHT22;42227;6.376;-10.782;2023-07-20T02:07:56;26.40;99.90
56322;DHT22;42227;6.376;-10.782;2023-07-20T02:10:24;26.30;99.90
56322;DHT22;42227;6.376;-10.782;2023-07-20T02:12:53;26.20;99.90
56322;DHT22;42227;6.376;-10.782;2023-07-20T02:15:22;26.10;99.90
56322;DHT22;42227;6.376;-10.782;2023-07-20T02:17:51;26.10;99.90
56322;DHT22;42227;6.376;-10.782;2023-07-20T02:20:20;26.00;99.90
56322;DHT22;42227;6.376;-10.782;2023-07-20T02:22:48;26.00;99.90
56322;DHT22;42227;6.376;-10.782;2023-07-20T02:25:17;26.10;99.90
56322;DHT22;42227;6.376;-10.782;2023-07-20T02:27:45;26.50;99.90
56322;DHT22;42227;6.376;-10.782;2023-07-20T02:30:14;26.60;99.90
56322;DHT22;42227;6.376;-10.782;2023-07-20T02:32:42;26.30;99.90
56322;DHT22;42227;6.376;-10.782;2023-07-20T02:35:11;26.20;99.90
56322;DHT22;42227;6.376;-10.782;2023-07-20T02:37:40;26.10;99.90
56322;DHT22;42227;6.376;-10.782;2023-07-20T02:40:09;26.20;99.90
56322;DHT22;42227;6.376;-10.782;2023-07-20T02:42:37;26.20;99.90
56322;DHT22;42227;6.376;-10.782;2023-07-20T02:45:06;26.10;99.90
56322;DHT22;42227;6.376;-10.782;2023-07-20T02:47:35;26.20;99.90
56322;DHT22;42227;6.376;-10.782;2023-07-20T02:50:07;26.20;99.90
56322;DHT22;42227;6.376;-10.782;2023-07-20T02:52:36;26.40;99.90
56322;DHT22;42227;6.376;-10.782;2023-07-20T02:55:04;26.60;99.90
56322;DHT22;42227;6.376;-10.782;2023-07-20T02:57:33;26.50;99.90
56322;DHT22;42227;6.376;-10.782;2023-07-20T03:00:03;26.30;99.90
56322;DHT22;42227;6.376;-10.782;2023-07-20T03:02:32;26.30;99.90
56322;DHT22;42227;6.376;-10.782;2023-07-20T03:05:00;26.30;99.90
56322;DHT22;42227;6.376;-10.782;2023-07-20T03:07:30;26.30;99.90
56322;DHT22;42227;6.376;-10.782;2023-07-20T03:09:58;26.30;99.90
56322;DHT22;42227;6.376;-10.782;2023-07-20T03:12:27;26.30;99.90
56322;DHT22;42227;6.376;-10.782;2023-07-20T03:14:55;26.30;99.90
56322;DHT22;42227;6.376;-10.782;2023-07-20T03:17:25;26.10;99.90
56322;DHT22;42227;6.376;-10.782;2023-07-20T03:19:53;26.10;99.90
56322;DHT22;42227;6.376;-10.782;2023-07-20T03:22:22;26.30;99.90
56322;DHT22;42227;6.376;-10.782;2023-07-20T03:24:51;26.50;99.90
56322;DHT22;42227;6.376;-10.782;2023-07-20T03:27:20;26.60;99.90
56322;DHT22;42227;6.376;-10.782;2023-07-20T03:29:49;26.40;99.90
56322;DHT22;42227;6.376;-10.782;2023-07-20T03:32:17;26.30;99.90
56322;DHT22;42227;6.376;-10.782;2023-07-20T03:34:46;26.30;99.90
56322;DHT22;42227;6.376;-10.782;2023-07-20T03:37:14;26.20;99.90
56322;DHT22;42227;6.376;-10.782;2023-07-20T03:39:43;26.20;99.90
56322;DHT22;42227;6.376;-10.782;2023-07-20T03:42:11;26.20;99.90
56322;DHT22;42227;6.376;-10.782;2023-07-20T03:44:40;26.10;99.90
56322;DHT22;42227;6.376;-10.782;2023-07-20T03:47:08;26.10;99.90
56322;DHT22;42227;6.376;-10.782;2023-07-20T03:49:37;26.10;99.90
56322;DHT22;42227;6.376;-10.782;2023-07-20T03:52:06;26.40;99.90
56322;DHT22;42227;6.376;-10.782;2023-07-20T03:54:34;26.70;99.90
56322;DHT22;42227;6.376;-10.782;2023-07-20T03:57:03;26.60;99.90
56322;DHT22;42227;6.376;-10.782;2023-07-20T03:59:32;26.30;99.90
56322;DHT22;42227;6.376;-10.782;2023-07-20T04:02:00;26.20;99.90
56322;DHT22;42227;6.376;-10.782;2023-07-20T04:04:28;26.10;99.90
56322;DHT22;42227;6.376;-10.782;2023-07-20T04:06:57;26.10;99.90
56322;DHT22;42227;6.376;-10.782;2023-07-20T04:09:26;26.10;99.90
56322;DHT22;42227;6.376;-10.782;2023-07-20T04:11:54;26.10;99.90
56322;DHT22;42227;6.376;-10.782;2023-07-20T04:14:23;26.20;99.90
56322;DHT22;42227;6.376;-10.782;2023-07-20T04:16:51;26.20;99.90
56322;DHT22;42227;6.376;-10.782;2023-07-20T04:19:20;26.40;99.90
56322;DHT22;42227;6.376;-10.782;2023-07-20T04:21:48;26.60;99.90
56322;DHT22;42227;6.376;-10.782;2023-07-20T04:24:17;26.30;99.90
56322;DHT22;42227;6.376;-10.782;2023-07-20T04:26:45;26.20;99.90
56322;DHT22;42227;6.376;-10.782;2023-07-20T04:29:14;26.10;99.90
56322;DHT22;42227;6.376;-10.782;2023-07-20T04:31:44;26.10;99.90
56322;DHT22;42227;6.376;-10.782;2023-07-20T04:34:12;26.10;99.90
56322;DHT22;42227;6.376;-10.782;2023-07-20T04:36:42;26.10;99.90
56322;DHT22;42227;6.376;-10.782;2023-07-20T04:39:10;26.10;99.90
56322;DHT22;42227;6.376;-10.782;2023-07-20T04:41:59;26.40;99.90
56322;DHT22;42227;6.376;-10.782;2023-07-20T04:44:27;26.80;99.90
56322;DHT22;42227;6.376;-10.782;2023-07-20T04:46:56;26.70;99.90
56322;DHT22;42227;6.376;-10.782;2023-07-20T04:49:25;26.50;99.90
56322;DHT22;42227;6.376;-10.782;2023-07-20T04:51:53;26.30;99.90
56322;DHT22;42227;6.376;-10.782;2023-07-20T04:54:22;26.20;99.90
56322;DHT22;42227;6.376;-10.782;2023-07-20T04:56:50;26.10;99.90
56322;DHT22;42227;6.376;-10.782;2023-07-20T04:59:20;26.10;99.90
56322;DHT22;42227;6.376;-10.782;2023-07-20T05:01:48;26.00;99.90
56322;DHT22;42227;6.376;-10.782;2023-07-20T05:04:17;26.00;99.90
56322;DHT22;42227;6.376;-10.782;2023-07-20T05:06:49;26.00;99.90
56322;DHT22;42227;6.376;-10.782;2023-07-20T05:09:18;26.20;99.90
56322;DHT22;42227;6.376;-10.782;2023-07-20T05:11:48;26.40;99.90
56322;DHT22;42227;6.376;-10.782;2023-07-20T05:14:17;26.30;99.90
56322;DHT22;42227;6.376;-10.782;2023-07-20T05:16:47;26.20;99.90
56322;DHT22;42227;6.376;-10.782;2023-07-20T05:19:15;26.10;99.90
56322;DHT22;42227;6.376;-10.782;2023-07-20T05:21:44;26.00;99.90
56322;DHT22;42227;6.376;-10.782;2023-07-20T05:24:12;25.90;99.90
56322;DHT22;42227;6.376;-10.782;2023-07-20T05:26:40;25.90;99.90
56322;DHT22;42227;6.376;-10.782;2023-07-20T05:29:09;25.90;99.90
56322;DHT22;42227;6.376;-10.782;2023-07-20T05:31:38;25.80;99.90
56322;DHT22;42227;6.376;-10.782;2023-07-20T05:34:06;25.90;1.00
56322;DHT22;42227;6.376;-10.782;2023-07-20T05:36:34;26.20;1.00
56322;DHT22;42227;6.376;-10.782;2023-07-20T05:39:21;26.40;99.90
56322;DHT22;42227;6.376;-10.782;2023-07-20T05:41:50;26.10;99.90
56322;DHT22;42227;6.376;-10.782;2023-07-20T05:44:18;25.90;99.90
56322;DHT22;42227;6.376;-10.782;2023-07-20T05:46:47;25.80;99.90
56322;DHT22;42227;6.376;-10.782;2023-07-20T05:49:24;25.70;99.90
56322;DHT22;42227;6.376;-10.782;2023-07-20T05:51:52;25.70;1.00
56322;DHT22;42227;6.376;-10.782;2023-07-20T05:54:21;25.70;1.00
56322;DHT22;42227;6.376;-10.782;2023-07-20T05:56:49;25.70;1.00
56322;DHT22;42227;6.376;-10.782;2023-07-20T05:59:18;25.60;1.00
56322;DHT22;42227;6.376;-10.782;2023-07-20T06:01:47;25.80;1.00
56322;DHT22;42227;6.376;-10.782;2023-07-20T06:04:15;26.30;1.00
56322;DHT22;42227;6.376;-10.782;2023-07-20T06:06:44;26.40;99.90
56322;DHT22;42227;6.376;-10.782;2023-07-20T06:09:12;26.10;99.90
56322;DHT22;42227;6.376;-10.782;2023-07-20T06:11:41;26.00;99.90
56322;DHT22;42227;6.376;-10.782;2023-07-20T06:14:09;25.90;1.00
56322;DHT22;42227;6.376;-10.782;2023-07-20T06:20:12;25.80;1.00
56322;DHT22;42227;6.376;-10.782;2023-07-20T06:22:41;25.80;1.00
56322;DHT22;42227;6.376;-10.782;2023-07-20T06:25:10;25.90;1.00
56322;DHT22;42227;6.376;-10.782;2023-07-20T06:27:38;26.20;1.00
56322;DHT22;42227;6.376;-10.782;2023-07-20T06:30:08;26.30;1.00
56322;DHT22;42227;6.376;-10.782;2023-07-20T06:32:36;26.10;1.00
56322;DHT22;42227;6.376;-10.782;2023-07-20T06:35:05;26.00;1.00
56322;DHT22;42227;6.376;-10.782;2023-07-20T06:37:35;25.90;1.00
56322;DHT22;42227;6.376;-10.782;2023-07-20T06:40:03;25.90;1.00
56322;DHT22;42227;6.376;-10.782;2023-07-20T06:42:35;25.90;1.00
56322;DHT22;42227;6.376;-10.782;2023-07-20T06:45:06;25.90;1.00
56322;DHT22;42227;6.376;-10.782;2023-07-20T06:47:38;25.90;1.00
56322;DHT22;42227;6.376;-10.782;2023-07-20T06:50:08;25.90;1.00
56322;DHT22;42227;6.376;-10.782;2023-07-20T06:52:44;25.90;1.00
56322;DHT22;42227;6.376;-10.782;2023-07-20T06:55:12;25.90;1.00
56322;DHT22;42227;6.376;-10.782;2023-07-20T06:57:40;26.10;1.00
56322;DHT22;42227;6.376;-10.782;2023-07-20T07:00:15;26.40;1.00
56322;DHT22;42227;6.376;-10.782;2023-07-20T07:02:43;26.60;1.00
56322;DHT22;42227;6.376;-10.782;2023-07-20T07:05:16;26.30;99.90
56322;DHT22;42227;6.376;-10.782;2023-07-20T07:07:48;26.10;1.00
56322;DHT22;42227;6.376;-10.782;2023-07-20T07:10:16;26.00;1.00
56322;DHT22;42227;6.376;-10.782;2023-07-20T07:12:44;26.00;1.00
56322;DHT22;42227;6.376;-10.782;2023-07-20T07:15:13;26.00;1.00
56322;DHT22;42227;6.376;-10.782;2023-07-20T07:17:41;25.90;1.00
56322;DHT22;42227;6.376;-10.782;2023-07-20T07:20:10;26.00;1.00
56322;DHT22;42227;6.376;-10.782;2023-07-20T07:22:49;26.20;1.00
56322;DHT22;42227;6.376;-10.782;2023-07-20T07:25:23;26.60;1.00
56322;DHT22;42227;6.376;-10.782;2023-07-20T07:27:53;26.80;99.90
56322;DHT22;42227;6.376;-10.782;2023-07-20T07:30:21;26.80;99.90
56322;DHT22;42227;6.376;-10.782;2023-07-20T07:32:50;27.00;99.90
56322;DHT22;42227;6.376;-10.782;2023-07-20T07:35:18;26.80;99.90
56322;DHT22;42227;6.376;-10.782;2023-07-20T07:37:46;26.50;99.90
56322;DHT22;42227;6.376;-10.782;2023-07-20T07:40:35;26.30;99.90
56322;DHT22;42227;6.376;-10.782;2023-07-20T07:43:03;26.20;99.90
56322;DHT22;42227;6.376;-10.782;2023-07-20T07:45:35;26.10;99.90
56322;DHT22;42227;6.376;-10.782;2023-07-20T07:48:04;26.10;99.90
56322;DHT22;42227;6.376;-10.782;2023-07-20T07:50:33;26.10;99.90
56322;DHT22;42227;6.376;-10.782;2023-07-20T07:53:03;26.00;99.90
56322;DHT22;42227;6.376;-10.782;2023-07-20T07:55:31;26.00;99.90
56322;DHT22;42227;6.376;-10.782;2023-07-20T07:57:59;26.10;1.00
56322;DHT22;42227;6.376;-10.782;2023-07-20T08:00:28;26.30;99.90
56322;DHT22;42227;6.376;-10.782;2023-07-20T08:02:56;26.60;99.90
56322;DHT22;42227;6.376;-10.782;2023-07-20T08:05:25;26.70;99.90
56322;DHT22;42227;6.376;-10.782;2023-07-20T08:07:54;26.70;99.90
56322;DHT22;42227;6.376;-10.782;2023-07-20T08:10:22;26.60;99.90
56322;DHT22;42227;6.376;-10.782;2023-07-20T08:12:51;26.40;99.90
56322;DHT22;42227;6.376;-10.782;2023-07-20T08:15:19;26.20;99.90
56322;DHT22;42227;6.376;-10.782;2023-07-20T08:17:48;26.20;99.90
56322;DHT22;42227;6.376;-10.782;2023-07-20T08:20:17;26.20;99.90
56322;DHT22;42227;6.376;-10.782;2023-07-20T08:22:46;26.30;99.90
56322;DHT22;42227;6.376;-10.782;2023-07-20T08:25:15;26.40;99.90
56322;DHT22;42227;6.376;-10.782;2023-07-20T08:27:44;26.40;99.90
56322;DHT22;42227;6.376;-10.782;2023-07-20T08:30:13;26.50;99.90
56322;DHT22;42227;6.376;-10.782;2023-07-20T08:32:41;26.50;99.90
56322;DHT22;42227;6.376;-10.782;2023-07-20T08:35:10;26.60;99.90
56322;DHT22;42227;6.376;-10.782;2023-07-20T08:37:42;26.80;99.90
56322;DHT22;42227;6.376;-10.782;2023-07-20T08:40:11;27.00;99.90
56322;DHT22;42227;6.376;-10.782;2023-07-20T08:42:42;27.10;99.90
56322;DHT22;42227;6.376;-10.782;2023-07-20T08:45:13;26.90;99.90
56322;DHT22;42227;6.376;-10.782;2023-07-20T08:47:42;26.80;99.90
56322;DHT22;42227;6.376;-10.782;2023-07-20T08:50:12;26.60;99.90
56322;DHT22;42227;6.376;-10.782;2023-07-20T08:52:41;26.60;99.90
56322;DHT22;42227;6.376;-10.782;2023-07-20T08:55:10;26.60;99.90
56322;DHT22;42227;6.376;-10.782;2023-07-20T08:57:40;26.70;99.90
56322;DHT22;42227;6.376;-10.782;2023-07-20T09:00:10;26.60;99.90
56322;DHT22;42227;6.376;-10.782;2023-07-20T09:02:39;26.90;99.90
56322;DHT22;42227;6.376;-10.782;2023-07-20T09:05:10;27.40;99.90
56322;DHT22;42227;6.376;-10.782;2023-07-20T09:07:42;27.50;99.90
56322;DHT22;42227;6.376;-10.782;2023-07-20T09:10:11;27.20;99.90
56322;DHT22;42227;6.376;-10.782;2023-07-20T09:12:44;27.00;99.90
56322;DHT22;42227;6.376;-10.782;2023-07-20T09:15:14;26.80;99.90
56322;DHT22;42227;6.376;-10.782;2023-07-20T09:17:51;26.80;99.90
56322;DHT22;42227;6.376;-10.782;2023-07-20T09:20:21;26.80;99.90
56322;DHT22;42227;6.376;-10.782;2023-07-20T09:22:51;26.90;99.90
56322;DHT22;42227;6.376;-10.782;2023-07-20T09:25:21;26.90;99.90
56322;DHT22;42227;6.376;-10.782;2023-07-20T09:27:54;27.10;99.90
56322;DHT22;42227;6.376;-10.782;2023-07-20T09:30:25;27.40;99.90
56322;DHT22;42227;6.376;-10.782;2023-07-20T09:32:57;27.60;99.90
56322;DHT22;42227;6.376;-10.782;2023-07-20T09:35:25;27.70;99.90
56322;DHT22;42227;6.376;-10.782;2023-07-20T09:38:02;27.40;99.90
56322;DHT22;42227;6.376;-10.782;2023-07-20T09:40:37;27.20;99.90
56322;DHT22;42227;6.376;-10.782;2023-07-20T09:43:09;27.00;99.90
56322;DHT22;42227;6.376;-10.782;2023-07-20T09:45:50;27.00;99.90
56322;DHT22;42227;6.376;-10.782;2023-07-20T09:48:25;26.90;99.90
56322;DHT22;42227;6.376;-10.782;2023-07-20T09:51:13;27.00;99.90
56322;DHT22;42227;6.376;-10.782;2023-07-20T09:53:42;26.90;99.90
56322;DHT22;42227;6.376;-10.782;2023-07-20T09:56:12;27.00;99.90
56322;DHT22;42227;6.376;-10.782;2023-07-20T09:58:46;27.30;99.90
56322;DHT22;42227;6.376;-10.782;2023-07-20T10:01:18;27.70;99.90
56322;DHT22;42227;6.376;-10.782;2023-07-20T10:04:03;28.00;99.90
56322;DHT22;42227;6.376;-10.782;2023-07-20T10:06:33;28.00;99.90
56322;DHT22;42227;6.376;-10.782;2023-07-20T10:09:04;27.80;99.90
56322;DHT22;42227;6.376;-10.782;2023-07-20T10:11:36;27.80;99.90
56322;DHT22;42227;6.376;-10.782;2023-07-20T10:14:12;28.00;99.90
56322;DHT22;42227;6.376;-10.782;2023-07-20T10:16:51;28.10;99.90
56322;DHT22;42227;6.376;-10.782;2023-07-20T10:19:29;28.30;99.90
56322;DHT22;42227;6.376;-10.782;2023-07-20T10:22:14;28.50;99.90
56322;DHT22;42227;6.376;-10.782;2023-07-20T10:24:46;28.60;99.90
56322;DHT22;42227;6.376;-10.782;2023-07-20T10:27:16;29.00;99.90
56322;DHT22;42227;6.376;-10.782;2023-07-20T10:29:52;29.40;99.90
56322;DHT22;42227;6.376;-10.782;2023-07-20T10:32:21;29.30;99.90
56322;DHT22;42227;6.376;-10.782;2023-07-20T10:34:55;29.10;99.90
56322;DHT22;42227;6.376;-10.782;2023-07-20T10:40:34;28.60;99.90
56322;DHT22;42227;6.376;-10.782;2023-07-20T10:43:12;28.40;99.90
56322;DHT22;42227;6.376;-10.782;2023-07-20T10:45:51;28.20;99.90
56322;DHT22;42227;6.376;-10.782;2023-07-20T10:48:24;28.30;99.90
56322;DHT22;42227;6.376;-10.782;2023-07-20T10:51:13;28.50;99.90
56322;DHT22;42227;6.376;-10.782;2023-07-20T10:53:42;28.50;99.90
56322;DHT22;42227;6.376;-10.782;2023-07-20T10:56:15;28.50;99.90
56322;DHT22;42227;6.376;-10.782;2023-07-20T10:58:48;28.80;99.90
56322;DHT22;42227;6.376;-10.782;2023-07-20T11:01:19;28.90;99.90
56322;DHT22;42227;6.376;-10.782;2023-07-20T11:03:50;28.90;99.90
56322;DHT22;42227;6.376;-10.782;2023-07-20T11:08:57;28.50;99.90
56322;DHT22;42227;6.376;-10.782;2023-07-20T11:11:35;28.40;99.90
56322;DHT22;42227;6.376;-10.782;2023-07-20T11:14:24;28.30;99.90
56322;DHT22;42227;6.376;-10.782;2023-07-20T11:16:53;28.40;99.90
56322;DHT22;42227;6.376;-10.782;2023-07-20T11:19:25;28.40;99.90
56322;DHT22;42227;6.376;-10.782;2023-07-20T11:21:58;28.50;99.90
56322;DHT22;42227;6.376;-10.782;2023-07-20T11:24:31;28.50;99.90
56322;DHT22;42227;6.376;-10.782;2023-07-20T11:27:00;28.40;99.90
56322;DHT22;42227;6.376;-10.782;2023-07-20T11:29:29;28.30;99.90
56322;DHT22;42227;6.376;-10.782;2023-07-20T11:32:02;28.30;99.90
56322;DHT22;42227;6.376;-10.782;2023-07-20T11:34:34;28.00;99.90
56322;DHT22;42227;6.376;-10.782;2023-07-20T11:37:05;27.70;99.90
56322;DHT22;42227;6.376;-10.782;2023-07-20T11:39:36;27.70;99.90
56322;DHT22;42227;6.376;-10.782;2023-07-20T11:42:05;27.60;99.90
56322;DHT22;42227;6.376;-10.782;2023-07-20T11:44:34;27.70;99.90
56322;DHT22;42227;6.376;-10.782;2023-07-20T11:47:09;27.80;99.90
56322;DHT22;42227;6.376;-10.782;2023-07-20T11:49:40;27.80;99.90
56322;DHT22;42227;6.376;-10.782;2023-07-20T11:52:13;27.70;99.90
56322;DHT22;42227;6.376;-10.782;2023-07-20T11:54:43;28.00;99.90
56322;DHT22;42227;6.376;-10.782;2023-07-20T11:57:22;28.10;99.90
56322;DHT22;42227;6.376;-10.782;2023-07-20T12:00:04;28.10;99.90
56322;DHT22;42227;6.376;-10.782;2023-07-20T12:02:33;28.10;99.90
56322;DHT22;42227;6.376;-10.782;2023-07-20T12:05:02;27.80;99.90
56322;DHT22;42227;6.376;-10.782;2023-07-20T12:07:35;27.60;99.90
56322;DHT22;42227;6.376;-10.782;2023-07-20T12:12:41;27.60;99.90
56322;DHT22;42227;6.376;-10.782;2023-07-20T12:15:26;27.80;99.90
56322;DHT22;42227;6.376;-10.782;2023-07-20T12:17:56;28.00;99.90
56322;DHT22;42227;6.376;-10.782;2023-07-20T12:20:30;28.20;99.90
56322;DHT22;42227;6.376;-10.782;2023-07-20T12:23:04;28.40;99.90
56322;DHT22;42227;6.376;-10.782;2023-07-20T12:28:06;29.20;99.90
56322;DHT22;42227;6.376;-10.782;2023-07-20T12:30:36;29.60;99.90
56322;DHT22;42227;6.376;-10.782;2023-07-20T12:33:04;29.50;99.90
56322;DHT22;42227;6.376;-10.782;2023-07-20T12:35:35;29.00;99.90
56322;DHT22;42227;6.376;-10.782;2023-07-20T12:38:04;28.90;99.90
56322;DHT22;42227;6.376;-10.782;2023-07-20T12:40:33;28.70;99.90
56322;DHT22;42227;6.376;-10.782;2023-07-20T12:43:02;28.60;99.90
56322;DHT22;42227;6.376;-10.782;2023-07-20T12:45:30;28.50;99.90
56322;DHT22;42227;6.376;-10.782;2023-07-20T12:47:59;28.50;99.90
56322;DHT22;42227;6.376;-10.782;2023-07-20T12:50:28;28.50;99.90
56322;DHT22;42227;6.376;-10.782;2023-07-20T12:52:57;28.60;99.90
56322;DHT22;42227;6.376;-10.782;2023-07-20T12:55:26;28.20;99.90
56322;DHT22;42227;6.376;-10.782;2023-07-20T12:57:54;27.70;99.90
56322;DHT22;42227;6.376;-10.782;2023-07-20T13:00:23;27.10;99.90
56322;DHT22;42227;6.376;-10.782;2023-07-20T13:02:52;26.60;99.90
56322;DHT22;42227;6.376;-10.782;2023-07-20T13:05:36;26.60;99.90
56322;DHT22;42227;6.376;-10.782;2023-07-20T13:08:07;26.40;99.90
56322;DHT22;42227;6.376;-10.782;2023-07-20T13:10:43;26.40;99.90
56322;DHT22;42227;6.376;-10.782;2023-07-20T13:13:11;26.50;99.90
56322;DHT22;42227;6.376;-10.782;2023-07-20T13:15:44;26.40;99.90
56322;DHT22;42227;6.376;-10.782;2023-07-20T13:18:13;26.50;99.90
56322;DHT22;42227;6.376;-10.782;2023-07-20T13:20:42;26.40;99.90
56322;DHT22;42227;6.376;-10.782;2023-07-20T13:23:10;26.40;99.90
56322;DHT22;42227;6.376;-10.782;2023-07-20T13:25:39;26.30;99.90
56322;DHT22;42227;6.376;-10.782;2023-07-20T13:28:07;26.20;99.90
56322;DHT22;42227;6.376;-10.782;2023-07-20T13:30:36;26.20;99.90
56322;DHT22;42227;6.376;-10.782;2023-07-20T13:33:07;26.40;99.90
56322;DHT22;42227;6.376;-10.782;2023-07-20T13:35:39;26.60;99.90
56322;DHT22;42227;6.376;-10.782;2023-07-20T13:38:11;26.70;99.90
56322;DHT22;42227;6.376;-10.782;2023-07-20T13:40:39;26.70;99.90
56322;DHT22;42227;6.376;-10.782;2023-07-20T13:43:08;26.60;99.90
56322;DHT22;42227;6.376;-10.782;2023-07-20T13:45:37;26.70;99.90
56322;DHT22;42227;6.376;-10.782;2023-07-20T13:48:07;26.50;99.90
56322;DHT22;42227;6.376;-10.782;2023-07-20T13:50:41;26.50;99.90
56322;DHT22;42227;6.376;-10.782;2023-07-20T13:53:26;26.70;99.90
56322;DHT22;42227;6.376;-10.782;2023-07-20T13:56:01;27.00;99.90
56322;DHT22;42227;6.376;-10.782;2023-07-20T13:58:33;27.20;99.90
56322;DHT22;42227;6.376;-10.782;2023-07-20T14:01:01;27.00;99.90
56322;DHT22;42227;6.376;-10.782;2023-07-20T14:03:30;26.70;99.90
56322;DHT22;42227;6.376;-10.782;2023-07-20T14:05:58;26.70;99.90
56322;DHT22;42227;6.376;-10.782;2023-07-20T14:08:30;27.00;99.90
56322;DHT22;42227;6.376;-10.782;2023-07-20T14:10:58;27.20;99.90
56322;DHT22;42227;6.376;-10.782;2023-07-20T14:13:29;27.50;99.90
56322;DHT22;42227;6.376;-10.782;2023-07-20T14:16:13;27.30;99.90
56322;DHT22;42227;6.376;-10.782;2023-07-20T14:18:42;27.30;99.90
56322;DHT22;42227;6.376;-10.782;2023-07-20T14:21:10;27.40;99.90
56322;DHT22;42227;6.376;-10.782;2023-07-20T14:23:39;27.10;99.90
56322;DHT22;42227;6.376;-10.782;2023-07-20T14:26:09;26.90;99.90
56322;DHT22;42227;6.376;-10.782;2023-07-20T14:28:44;27.00;99.90
56322;DHT22;42227;6.376;-10.782;2023-07-20T14:31:13;27.10;99.90
56322;DHT22;42227;6.376;-10.782;2023-07-20T14:33:41;26.90;99.90
56322;DHT22;42227;6.376;-10.782;2023-07-20T14:36:10;26.80;99.90
56322;DHT22;42227;6.376;-10.782;2023-07-20T14:38:38;26.80;99.90
56322;DHT22;42227;6.376;-10.782;2023-07-20T14:41:07;26.90;99.90
56322;DHT22;42227;6.376;-10.782;2023-07-20T14:43:36;26.70;99.90
56322;DHT22;42227;6.376;-10.782;2023-07-20T14:46:04;26.70;99.90
56322;DHT22;42227;6.376;-10.782;2023-07-20T14:48:33;27.00;99.90
56322;DHT22;42227;6.376;-10.782;2023-07-20T14:51:02;27.20;99.90
56322;DHT22;42227;6.376;-10.782;2023-07-20T14:53:32;27.30;99.90
56322;DHT22;42227;6.376;-10.782;2023-07-20T14:56:03;27.40;99.90
56322;DHT22;42227;6.376;-10.782;2023-07-20T14:58:32;27.40;99.90
56322;DHT22;42227;6.376;-10.782;2023-07-20T15:01:03;27.40;99.90
56322;DHT22;42227;6.376;-10.782;2023-07-20T15:03:32;27.30;99.90
56322;DHT22;42227;6.376;-10.782;2023-07-20T15:06:01;27.30;99.90
56322;DHT22;42227;6.376;-10.782;2023-07-20T15:08:30;27.40;99.90
56322;DHT22;42227;6.376;-10.782;2023-07-20T15:11:00;27.20;99.90
56322;DHT22;42227;6.376;-10.782;2023-07-20T15:13:29;27.00;99.90
56322;DHT22;42227;6.376;-10.782;2023-07-20T15:15:57;26.90;99.90
56322;DHT22;42227;6.376;-10.782;2023-07-20T15:18:26;26.80;99.90
56322;DHT22;42227;6.376;-10.782;2023-07-20T15:21:14;26.80;99.90
56322;DHT22;42227;6.376;-10.782;2023-07-20T15:23:43;26.70;99.90
56322;DHT22;42227;6.376;-10.782;2023-07-20T15:26:12;26.70;99.90
56322;DHT22;42227;6.376;-10.782;2023-07-20T15:28:40;27.10;99.90
56322;DHT22;42227;6.376;-10.782;2023-07-20T15:31:09;27.30;99.90
56322;DHT22;42227;6.376;-10.782;2023-07-20T15:33:38;27.10;99.90
56322;DHT22;42227;6.376;-10.782;2023-07-20T15:36:06;27.10;99.90
56322;DHT22;42227;6.376;-10.782;2023-07-20T15:38:35;27.00;99.90
56322;DHT22;42227;6.376;-10.782;2023-07-20T15:41:03;26.70;99.90
56322;DHT22;42227;6.376;-10.782;2023-07-20T15:43:34;26.40;99.90
56322;DHT22;42227;6.376;-10.782;2023-07-20T15:48:52;25.90;99.90
56322;DHT22;42227;6.376;-10.782;2023-07-20T15:51:23;25.90;99.90
56322;DHT22;42227;6.376;-10.782;2023-07-20T15:53:52;25.90;99.90
56322;DHT22;42227;6.376;-10.782;2023-07-20T15:56:21;25.90;99.90
56322;DHT22;42227;6.376;-10.782;2023-07-20T15:58:50;26.00;99.90
56322;DHT22;42227;6.376;-10.782;2023-07-20T16:01:18;26.00;99.90
56322;DHT22;42227;6.376;-10.782;2023-07-20T16:03:47;26.10;99.90
56322;DHT22;42227;6.376;-10.782;2023-07-20T16:06:16;26.40;99.90
56322;DHT22;42227;6.376;-10.782;2023-07-20T16:08:44;26.20;99.90